sensor_id;sensor_type;location;lat;lon;timestamp;P1;durP1;ratioP1;P2;durP2;ratioP2
80111;SDS011;69421;51.062;3.728;2023-04-25T00:01:47;12.23;;;3.53;;
80111;SDS011;69421;51.062;3.728;2023-04-25T00:04:18;11.75;;;3.65;;
80111;SDS011;69421;51.062;3.728;2023-04-25T00:06:44;15.20;;;4.68;;
80111;SDS011;69421;51.062;3.728;2023-04-25T00:09:09;7.28;;;2.90;;
80111;SDS011;69421;51.062;3.728;2023-04-25T00:11:36;9.32;;;3.67;;
80111;SDS011;69421;51.062;3.728;2023-04-25T00:14:02;14.73;;;3.13;;
80111;SDS011;69421;51.062;3.728;2023-04-25T00:16:28;10.93;;;2.97;;
80111;SDS011;69421;51.062;3.728;2023-04-25T00:18:55;11.10;;;4.65;;
80111;SDS011;69421;51.062;3.728;2023-04-25T00:21:21;13.15;;;4.13;;
80111;SDS011;69421;51.062;3.728;2023-04-25T00:23:49;13.32;;;3.45;;
80111;SDS011;69421;51.062;3.728;2023-04-25T00:26:15;12.32;;;3.47;;
80111;SDS011;69421;51.062;3.728;2023-04-25T00:28:40;18.83;;;4.17;;
80111;SDS011;69421;51.062;3.728;2023-04-25T00:31:06;16.83;;;4.07;;
80111;SDS011;69421;51.062;3.728;2023-04-25T00:33:31;11.05;;;3.50;;
80111;SDS011;69421;51.062;3.728;2023-04-25T00:35:57;13.30;;;4.22;;
80111;SDS011;69421;51.062;3.728;2023-04-25T00:38:22;9.90;;;2.97;;
80111;SDS011;69421;51.062;3.728;2023-04-25T00:40:48;9.60;;;2.50;;
80111;SDS011;69421;51.062;3.728;2023-04-25T00:43:13;13.57;;;4.43;;
80111;SDS011;69421;51.062;3.728;2023-04-25T00:45:39;8.55;;;3.83;;
80111;SDS011;69421;51.062;3.728;2023-04-25T00:48:05;12.50;;;3.50;;
80111;SDS011;69421;51.062;3.728;2023-04-25T00:50:32;11.50;;;3.05;;
80111;SDS011;69421;51.062;3.728;2023-04-25T00:52:58;12.48;;;4.53;;
80111;SDS011;69421;51.062;3.728;2023-04-25T00:55:24;10.32;;;3.28;;
80111;SDS011;69421;51.062;3.728;2023-04-25T00:57:50;12.00;;;3.80;;
80111;SDS011;69421;51.062;3.728;2023-04-25T01:00:15;11.88;;;3.28;;
80111;SDS011;69421;51.062;3.728;2023-04-25T01:02:41;15.30;;;4.47;;
80111;SDS011;69421;51.062;3.728;2023-04-25T01:05:07;11.68;;;3.00;;
80111;SDS011;69421;51.062;3.728;2023-04-25T01:07:33;7.22;;;2.70;;
80111;SDS011;69421;51.062;3.728;2023-04-25T01:09:59;9.00;;;3.00;;
80111;SDS011;69421;51.062;3.728;2023-04-25T01:12:26;9.82;;;3.05;;
80111;SDS011;69421;51.062;3.728;2023-04-25T01:14:51;9.07;;;3.43;;
80111;SDS011;69421;51.062;3.728;2023-04-25T01:17:17;14.23;;;2.90;;
80111;SDS011;69421;51.062;3.728;2023-04-25T01:19:43;8.27;;;3.15;;
80111;SDS011;69421;51.062;3.728;2023-04-25T01:22:11;7.25;;;2.70;;
80111;SDS011;69421;51.062;3.728;2023-04-25T01:24:36;7.00;;;2.35;;
80111;SDS011;69421;51.062;3.728;2023-04-25T01:27:02;9.77;;;2.85;;
80111;SDS011;69421;51.062;3.728;2023-04-25T01:29:28;16.35;;;2.88;;
80111;SDS011;69421;51.062;3.728;2023-04-25T01:31:54;10.05;;;2.42;;
80111;SDS011;69421;51.062;3.728;2023-04-25T01:34:20;11.50;;;3.50;;
80111;SDS011;69421;51.062;3.728;2023-04-25T01:36:49;12.25;;;2.97;;
80111;SDS011;69421;51.062;3.728;2023-04-25T01:41:41;9.15;;;2.65;;
80111;SDS011;69421;51.062;3.728;2023-04-25T01:44:07;10.57;;;3.00;;
80111;SDS011;69421;51.062;3.728;2023-04-25T01:46:33;8.85;;;2.70;;
80111;SDS011;69421;51.062;3.728;2023-04-25T01:48:59;13.35;;;3.03;;
80111;SDS011;69421;51.062;3.728;2023-04-25T01:51:24;13.80;;;4.00;;
80111;SDS011;69421;51.062;3.728;2023-04-25T01:53:50;8.90;;;2.90;;
80111;SDS011;69421;51.062;3.728;2023-04-25T01:56:17;15.27;;;3.83;;
80111;SDS011;69421;51.062;3.728;2023-04-25T01:58:43;15.60;;;3.38;;
80111;SDS011;69421;51.062;3.728;2023-04-25T02:01:08;11.67;;;3.67;;
80111;SDS011;69421;51.062;3.728;2023-04-25T02:03:37;13.27;;;4.47;;
80111;SDS011;69421;51.062;3.728;2023-04-25T02:06:02;12.80;;;3.75;;
80111;SDS011;69421;51.062;3.728;2023-04-25T02:08:28;15.75;;;3.50;;
80111;SDS011;69421;51.062;3.728;2023-04-25T02:10:53;11.35;;;3.83;;
80111;SDS011;69421;51.062;3.728;2023-04-25T02:13:19;15.05;;;3.85;;
80111;SDS011;69421;51.062;3.728;2023-04-25T02:15:44;11.77;;;3.70;;
80111;SDS011;69421;51.062;3.728;2023-04-25T02:18:10;12.23;;;3.40;;
80111;SDS011;69421;51.062;3.728;2023-04-25T02:20:36;12.75;;;4.63;;
80111;SDS011;69421;51.062;3.728;2023-04-25T02:23:02;10.02;;;3.85;;
80111;SDS011;69421;51.062;3.728;2023-04-25T02:25:28;12.55;;;3.30;;
80111;SDS011;69421;51.062;3.728;2023-04-25T02:27:53;13.63;;;3.45;;
80111;SDS011;69421;51.062;3.728;2023-04-25T02:30:19;12.10;;;3.40;;
80111;SDS011;69421;51.062;3.728;2023-04-25T02:32:45;11.43;;;3.33;;
80111;SDS011;69421;51.062;3.728;2023-04-25T02:35:10;8.20;;;3.55;;
80111;SDS011;69421;51.062;3.728;2023-04-25T02:37:36;11.02;;;2.83;;
80111;SDS011;69421;51.062;3.728;2023-04-25T02:40:03;8.55;;;3.63;;
80111;SDS011;69421;51.062;3.728;2023-04-25T02:42:29;11.07;;;3.25;;
80111;SDS011;69421;51.062;3.728;2023-04-25T02:44:55;7.95;;;3.22;;
80111;SDS011;69421;51.062;3.728;2023-04-25T02:47:20;11.32;;;3.20;;
80111;SDS011;69421;51.062;3.728;2023-04-25T02:49:46;14.48;;;3.42;;
80111;SDS011;69421;51.062;3.728;2023-04-25T02:52:11;13.60;;;3.20;;
80111;SDS011;69421;51.062;3.728;2023-04-25T02:54:40;11.57;;;3.78;;
80111;SDS011;69421;51.062;3.728;2023-04-25T02:57:09;10.77;;;3.50;;
80111;SDS011;69421;51.062;3.728;2023-04-25T02:59:34;9.13;;;2.58;;
80111;SDS011;69421;51.062;3.728;2023-04-25T03:02:00;9.90;;;3.50;;
80111;SDS011;69421;51.062;3.728;2023-04-25T03:04:26;10.85;;;4.25;;
80111;SDS011;69421;51.062;3.728;2023-04-25T03:06:51;7.22;;;3.85;;
80111;SDS011;69421;51.062;3.728;2023-04-25T03:09:18;8.77;;;3.13;;
80111;SDS011;69421;51.062;3.728;2023-04-25T03:11:44;12.20;;;3.63;;
80111;SDS011;69421;51.062;3.728;2023-04-25T03:14:10;12.38;;;2.85;;
80111;SDS011;69421;51.062;3.728;2023-04-25T03:16:36;9.40;;;2.70;;
80111;SDS011;69421;51.062;3.728;2023-04-25T03:19:02;12.52;;;3.78;;
80111;SDS011;69421;51.062;3.728;2023-04-25T03:21:28;7.82;;;2.65;;
80111;SDS011;69421;51.062;3.728;2023-04-25T03:23:54;10.15;;;2.30;;
80111;SDS011;69421;51.062;3.728;2023-04-25T03:26:19;10.05;;;2.80;;
80111;SDS011;69421;51.062;3.728;2023-04-25T03:28:45;8.70;;;2.55;;
80111;SDS011;69421;51.062;3.728;2023-04-25T03:31:11;11.80;;;2.88;;
80111;SDS011;69421;51.062;3.728;2023-04-25T03:33:36;6.77;;;2.20;;
80111;SDS011;69421;51.062;3.728;2023-04-25T03:36:02;6.87;;;2.27;;
80111;SDS011;69421;51.062;3.728;2023-04-25T03:38:28;8.30;;;2.05;;
80111;SDS011;69421;51.062;3.728;2023-04-25T03:40:54;9.30;;;2.50;;
80111;SDS011;69421;51.062;3.728;2023-04-25T03:43:21;11.60;;;2.55;;
80111;SDS011;69421;51.062;3.728;2023-04-25T03:45:49;8.80;;;2.20;;
80111;SDS011;69421;51.062;3.728;2023-04-25T03:48:14;11.20;;;2.72;;
80111;SDS011;69421;51.062;3.728;2023-04-25T03:50:40;10.15;;;3.15;;
80111;SDS011;69421;51.062;3.728;2023-04-25T03:53:08;11.02;;;2.33;;
80111;SDS011;69421;51.062;3.728;2023-04-25T03:55:34;8.20;;;2.58;;
80111;SDS011;69421;51.062;3.728;2023-04-25T03:58:00;7.95;;;2.25;;
80111;SDS011;69421;51.062;3.728;2023-04-25T04:00:25;10.60;;;2.63;;
80111;SDS011;69421;51.062;3.728;2023-04-25T04:02:50;10.18;;;2.70;;
80111;SDS011;69421;51.062;3.728;2023-04-25T04:05:16;8.52;;;2.35;;
80111;SDS011;69421;51.062;3.728;2023-04-25T04:07:42;6.78;;;2.42;;
80111;SDS011;69421;51.062;3.728;2023-04-25T04:10:08;9.68;;;1.70;;
80111;SDS011;69421;51.062;3.728;2023-04-25T04:12:37;6.38;;;2.08;;
80111;SDS011;69421;51.062;3.728;2023-04-25T04:15:09;6.63;;;2.10;;
80111;SDS011;69421;51.062;3.728;2023-04-25T04:17:35;3.97;;;1.85;;
80111;SDS011;69421;51.062;3.728;2023-04-25T04:20:00;6.23;;;2.17;;
80111;SDS011;69421;51.062;3.728;2023-04-25T04:22:26;7.28;;;3.22;;
80111;SDS011;69421;51.062;3.728;2023-04-25T04:24:51;9.57;;;2.80;;
80111;SDS011;69421;51.062;3.728;2023-04-25T04:27:17;12.20;;;2.55;;
80111;SDS011;69421;51.062;3.728;2023-04-25T04:29:44;13.95;;;3.40;;
80111;SDS011;69421;51.062;3.728;2023-04-25T04:32:09;7.82;;;3.08;;
80111;SDS011;69421;51.062;3.728;2023-04-25T04:34:35;11.43;;;3.45;;
80111;SDS011;69421;51.062;3.728;2023-04-25T04:37:01;6.43;;;2.65;;
80111;SDS011;69421;51.062;3.728;2023-04-25T04:39:26;10.00;;;3.05;;
80111;SDS011;69421;51.062;3.728;2023-04-25T04:41:52;8.80;;;3.20;;
80111;SDS011;69421;51.062;3.728;2023-04-25T04:44:18;7.80;;;3.60;;
80111;SDS011;69421;51.062;3.728;2023-04-25T04:46:43;10.23;;;2.90;;
80111;SDS011;69421;51.062;3.728;2023-04-25T04:49:09;6.93;;;2.70;;
80111;SDS011;69421;51.062;3.728;2023-04-25T04:51:35;10.15;;;2.30;;
80111;SDS011;69421;51.062;3.728;2023-04-25T04:54:02;8.70;;;2.50;;
80111;SDS011;69421;51.062;3.728;2023-04-25T04:56:28;6.65;;;2.28;;
80111;SDS011;69421;51.062;3.728;2023-04-25T04:58:56;5.70;;;2.00;;
80111;SDS011;69421;51.062;3.728;2023-04-25T05:01:22;9.25;;;3.25;;
80111;SDS011;69421;51.062;3.728;2023-04-25T05:03:47;10.00;;;3.00;;
80111;SDS011;69421;51.062;3.728;2023-04-25T05:06:13;9.20;;;2.85;;
80111;SDS011;69421;51.062;3.728;2023-04-25T05:08:38;6.40;;;2.58;;
80111;SDS011;69421;51.062;3.728;2023-04-25T05:11:04;7.63;;;2.60;;
80111;SDS011;69421;51.062;3.728;2023-04-25T05:13:30;9.32;;;3.63;;
80111;SDS011;69421;51.062;3.728;2023-04-25T05:15:55;6.78;;;2.08;;
80111;SDS011;69421;51.062;3.728;2023-04-25T05:18:22;8.68;;;2.38;;
80111;SDS011;69421;51.062;3.728;2023-04-25T05:20:48;7.35;;;1.95;;
80111;SDS011;69421;51.062;3.728;2023-04-25T05:23:14;10.02;;;3.50;;
80111;SDS011;69421;51.062;3.728;2023-04-25T05:25:40;13.15;;;3.42;;
80111;SDS011;69421;51.062;3.728;2023-04-25T05:28:05;15.68;;;3.90;;
80111;SDS011;69421;51.062;3.728;2023-04-25T05:30:31;22.23;;;5.50;;
80111;SDS011;69421;51.062;3.728;2023-04-25T05:32:56;16.43;;;4.63;;
80111;SDS011;69421;51.062;3.728;2023-04-25T05:35:22;14.27;;;3.17;;
80111;SDS011;69421;51.062;3.728;2023-04-25T05:37:47;6.63;;;2.90;;
80111;SDS011;69421;51.062;3.728;2023-04-25T05:40:13;13.57;;;3.08;;
80111;SDS011;69421;51.062;3.728;2023-04-25T05:42:38;8.57;;;2.50;;
80111;SDS011;69421;51.062;3.728;2023-04-25T05:45:04;9.97;;;3.77;;
80111;SDS011;69421;51.062;3.728;2023-04-25T05:47:30;9.70;;;2.25;;
80111;SDS011;69421;51.062;3.728;2023-04-25T05:49:55;8.48;;;2.85;;
80111;SDS011;69421;51.062;3.728;2023-04-25T05:52:21;9.68;;;2.75;;
80111;SDS011;69421;51.062;3.728;2023-04-25T05:54:47;8.27;;;2.72;;
80111;SDS011;69421;51.062;3.728;2023-04-25T05:57:22;8.93;;;2.23;;
80111;SDS011;69421;51.062;3.728;2023-04-25T06:02:13;5.03;;;2.70;;
80111;SDS011;69421;51.062;3.728;2023-04-25T06:04:39;7.10;;;2.07;;
80111;SDS011;69421;51.062;3.728;2023-04-25T06:07:04;7.45;;;3.03;;
80111;SDS011;69421;51.062;3.728;2023-04-25T06:09:30;10.68;;;2.97;;
80111;SDS011;69421;51.062;3.728;2023-04-25T06:11:55;8.33;;;2.17;;
80111;SDS011;69421;51.062;3.728;2023-04-25T06:14:21;10.55;;;3.13;;
80111;SDS011;69421;51.062;3.728;2023-04-25T06:16:46;7.80;;;2.65;;
80111;SDS011;69421;51.062;3.728;2023-04-25T06:19:12;6.90;;;1.77;;
80111;SDS011;69421;51.062;3.728;2023-04-25T06:21:41;6.63;;;1.90;;
80111;SDS011;69421;51.062;3.728;2023-04-25T06:24:08;4.80;;;1.63;;
80111;SDS011;69421;51.062;3.728;2023-04-25T06:26:33;5.00;;;2.13;;
80111;SDS011;69421;51.062;3.728;2023-04-25T06:28:59;6.87;;;2.03;;
80111;SDS011;69421;51.062;3.728;2023-04-25T06:31:24;15.23;;;3.33;;
80111;SDS011;69421;51.062;3.728;2023-04-25T06:33:50;12.60;;;3.47;;
80111;SDS011;69421;51.062;3.728;2023-04-25T06:36:15;8.87;;;1.70;;
80111;SDS011;69421;51.062;3.728;2023-04-25T06:38:41;8.13;;;1.38;;
80111;SDS011;69421;51.062;3.728;2023-04-25T06:41:06;5.60;;;1.33;;
80111;SDS011;69421;51.062;3.728;2023-04-25T06:43:32;35.87;;;6.07;;
80111;SDS011;69421;51.062;3.728;2023-04-25T06:45:59;23.73;;;3.42;;
80111;SDS011;69421;51.062;3.728;2023-04-25T06:48:25;7.53;;;2.35;;
80111;SDS011;69421;51.062;3.728;2023-04-25T06:50:52;5.80;;;1.17;;
80111;SDS011;69421;51.062;3.728;2023-04-25T06:53:17;3.40;;;1.00;;
80111;SDS011;69421;51.062;3.728;2023-04-25T06:55:43;5.75;;;1.33;;
80111;SDS011;69421;51.062;3.728;2023-04-25T06:58:09;4.05;;;1.00;;
80111;SDS011;69421;51.062;3.728;2023-04-25T07:00:34;11.30;;;1.33;;
80111;SDS011;69421;51.062;3.728;2023-04-25T07:03:01;4.68;;;1.10;;
80111;SDS011;69421;51.062;3.728;2023-04-25T07:05:30;3.70;;;0.80;;
80111;SDS011;69421;51.062;3.728;2023-04-25T07:07:55;8.60;;;1.05;;
80111;SDS011;69421;51.062;3.728;2023-04-25T07:10:20;8.43;;;1.43;;
80111;SDS011;69421;51.062;3.728;2023-04-25T07:12:46;4.85;;;1.17;;
80111;SDS011;69421;51.062;3.728;2023-04-25T07:15:11;7.70;;;1.20;;
80111;SDS011;69421;51.062;3.728;2023-04-25T07:17:37;5.28;;;1.00;;
80111;SDS011;69421;51.062;3.728;2023-04-25T07:20:03;4.68;;;1.20;;
80111;SDS011;69421;51.062;3.728;2023-04-25T07:22:30;4.20;;;1.55;;
80111;SDS011;69421;51.062;3.728;2023-04-25T07:24:57;5.10;;;1.52;;
80111;SDS011;69421;51.062;3.728;2023-04-25T07:27:22;3.78;;;0.90;;
80111;SDS011;69421;51.062;3.728;2023-04-25T07:29:47;6.43;;;1.30;;
80111;SDS011;69421;51.062;3.728;2023-04-25T07:32:13;6.10;;;1.15;;
80111;SDS011;69421;51.062;3.728;2023-04-25T07:34:39;5.88;;;0.75;;
80111;SDS011;69421;51.062;3.728;2023-04-25T07:37:04;3.42;;;0.90;;
80111;SDS011;69421;51.062;3.728;2023-04-25T07:39:31;1.95;;;0.93;;
80111;SDS011;69421;51.062;3.728;2023-04-25T07:41:56;5.27;;;0.87;;
80111;SDS011;69421;51.062;3.728;2023-04-25T07:44:23;4.38;;;1.45;;
80111;SDS011;69421;51.062;3.728;2023-04-25T07:46:49;6.45;;;1.63;;
80111;SDS011;69421;51.062;3.728;2023-04-25T07:49:14;5.10;;;1.07;;
80111;SDS011;69421;51.062;3.728;2023-04-25T07:51:40;2.45;;;0.70;;
80111;SDS011;69421;51.062;3.728;2023-04-25T07:54:09;4.28;;;0.65;;
80111;SDS011;69421;51.062;3.728;2023-04-25T07:56:34;3.90;;;1.02;;
80111;SDS011;69421;51.062;3.728;2023-04-25T07:59:00;6.22;;;0.85;;
80111;SDS011;69421;51.062;3.728;2023-04-25T08:01:26;2.67;;;0.93;;
80111;SDS011;69421;51.062;3.728;2023-04-25T08:03:52;5.65;;;1.05;;
80111;SDS011;69421;51.062;3.728;2023-04-25T08:06:17;7.28;;;1.40;;
80111;SDS011;69421;51.062;3.728;2023-04-25T08:08:43;5.10;;;1.55;;
80111;SDS011;69421;51.062;3.728;2023-04-25T08:11:08;3.85;;;1.38;;
80111;SDS011;69421;51.062;3.728;2023-04-25T08:13:34;12.63;;;2.20;;
80111;SDS011;69421;51.062;3.728;2023-04-25T08:15:59;14.80;;;2.10;;
80111;SDS011;69421;51.062;3.728;2023-04-25T08:18:25;6.90;;;1.63;;
80111;SDS011;69421;51.062;3.728;2023-04-25T08:20:50;4.65;;;1.73;;
80111;SDS011;69421;51.062;3.728;2023-04-25T08:23:16;6.50;;;1.47;;
80111;SDS011;69421;51.062;3.728;2023-04-25T08:25:41;7.47;;;0.75;;
80111;SDS011;69421;51.062;3.728;2023-04-25T08:28:06;2.60;;;1.10;;
80111;SDS011;69421;51.062;3.728;2023-04-25T08:30:32;3.63;;;0.60;;
80111;SDS011;69421;51.062;3.728;2023-04-25T08:32:57;3.17;;;0.67;;
80111;SDS011;69421;51.062;3.728;2023-04-25T08:35:23;5.75;;;1.08;;
80111;SDS011;69421;51.062;3.728;2023-04-25T08:37:48;2.03;;;0.88;;
80111;SDS011;69421;51.062;3.728;2023-04-25T08:40:14;3.47;;;0.70;;
80111;SDS011;69421;51.062;3.728;2023-04-25T08:42:43;2.40;;;0.80;;
80111;SDS011;69421;51.062;3.728;2023-04-25T08:45:09;3.67;;;0.50;;
80111;SDS011;69421;51.062;3.728;2023-04-25T08:47:35;3.50;;;0.63;;
80111;SDS011;69421;51.062;3.728;2023-04-25T08:50:06;8.48;;;1.00;;
80111;SDS011;69421;51.062;3.728;2023-04-25T08:52:36;5.80;;;0.95;;
80111;SDS011;69421;51.062;3.728;2023-04-25T08:55:03;1.17;;;0.40;;
80111;SDS011;69421;51.062;3.728;2023-04-25T08:57:30;3.40;;;0.63;;
80111;SDS011;69421;51.062;3.728;2023-04-25T08:59:56;3.33;;;0.50;;
80111;SDS011;69421;51.062;3.728;2023-04-25T09:02:22;5.22;;;0.93;;
80111;SDS011;69421;51.062;3.728;2023-04-25T09:04:49;9.27;;;1.23;;
80111;SDS011;69421;51.062;3.728;2023-04-25T09:07:15;5.03;;;1.38;;
80111;SDS011;69421;51.062;3.728;2023-04-25T09:09:43;4.35;;;0.57;;
80111;SDS011;69421;51.062;3.728;2023-04-25T09:12:10;5.53;;;0.73;;
80111;SDS011;69421;51.062;3.728;2023-04-25T09:14:35;6.47;;;1.08;;
80111;SDS011;69421;51.062;3.728;2023-04-25T09:17:02;3.83;;;0.90;;
80111;SDS011;69421;51.062;3.728;2023-04-25T09:21:55;6.40;;;1.40;;
80111;SDS011;69421;51.062;3.728;2023-04-25T09:27:06;4.22;;;1.08;;
80111;SDS011;69421;51.062;3.728;2023-04-25T09:29:37;1.77;;;0.50;;
80111;SDS011;69421;51.062;3.728;2023-04-25T09:34:42;3.17;;;0.82;;
80111;SDS011;69421;51.062;3.728;2023-04-25T09:37:09;6.25;;;1.15;;
80111;SDS011;69421;51.062;3.728;2023-04-25T09:39:37;1.92;;;0.63;;
80111;SDS011;69421;51.062;3.728;2023-04-25T09:42:03;5.13;;;1.88;;
80111;SDS011;69421;51.062;3.728;2023-04-25T09:44:29;2.95;;;1.00;;
80111;SDS011;69421;51.062;3.728;2023-04-25T09:46:55;3.00;;;1.10;;
80111;SDS011;69421;51.062;3.728;2023-04-25T09:49:22;2.85;;;1.13;;
80111;SDS011;69421;51.062;3.728;2023-04-25T09:51:58;5.25;;;1.30;;
80111;SDS011;69421;51.062;3.728;2023-04-25T09:54:24;3.67;;;1.13;;
80111;SDS011;69421;51.062;3.728;2023-04-25T09:56:51;1.90;;;0.73;;
80111;SDS011;69421;51.062;3.728;2023-04-25T09:59:21;1.98;;;0.57;;
80111;SDS011;69421;51.062;3.728;2023-04-25T10:01:49;2.45;;;1.00;;
80111;SDS011;69421;51.062;3.728;2023-04-25T10:04:18;1.08;;;0.40;;
80111;SDS011;69421;51.062;3.728;2023-04-25T10:06:48;1.92;;;0.63;;
80111;SDS011;69421;51.062;3.728;2023-04-25T10:09:15;5.60;;;0.77;;
80111;SDS011;69421;51.062;3.728;2023-04-25T10:11:44;4.15;;;1.10;;
80111;SDS011;69421;51.062;3.728;2023-04-25T10:14:12;4.05;;;1.13;;
80111;SDS011;69421;51.062;3.728;2023-04-25T10:16:38;3.58;;;0.80;;
80111;SDS011;69421;51.062;3.728;2023-04-25T10:19:03;3.03;;;1.02;;
80111;SDS011;69421;51.062;3.728;2023-04-25T10:21:29;2.88;;;0.70;;
80111;SDS011;69421;51.062;3.728;2023-04-25T10:23:56;5.97;;;1.08;;
80111;SDS011;69421;51.062;3.728;2023-04-25T10:26:22;6.18;;;0.90;;
80111;SDS011;69421;51.062;3.728;2023-04-25T10:28:58;8.90;;;5.00;;
80111;SDS011;69421;51.062;3.728;2023-04-25T10:31:29;6.10;;;2.08;;
80111;SDS011;69421;51.062;3.728;2023-04-25T10:33:55;7.60;;;2.80;;
80111;SDS011;69421;51.062;3.728;2023-04-25T10:36:21;3.75;;;0.70;;
80111;SDS011;69421;51.062;3.728;2023-04-25T10:38:48;2.30;;;0.90;;
80111;SDS011;69421;51.062;3.728;2023-04-25T10:41:16;4.07;;;0.70;;
80111;SDS011;69421;51.062;3.728;2023-04-25T10:43:44;3.13;;;0.50;;
80111;SDS011;69421;51.062;3.728;2023-04-25T10:46:14;3.35;;;0.95;;
80111;SDS011;69421;51.062;3.728;2023-04-25T10:56:20;4.65;;;1.35;;
80111;SDS011;69421;51.062;3.728;2023-04-25T10:58:50;5.20;;;1.08;;
80111;SDS011;69421;51.062;3.728;2023-04-25T11:01:20;4.03;;;1.00;;
80111;SDS011;69421;51.062;3.728;2023-04-25T11:03:46;4.03;;;1.23;;
80111;SDS011;69421;51.062;3.728;2023-04-25T11:06:29;4.53;;;1.00;;
80111;SDS011;69421;51.062;3.728;2023-04-25T11:09:10;3.50;;;0.80;;
80111;SDS011;69421;51.062;3.728;2023-04-25T11:11:38;4.72;;;1.50;;
80111;SDS011;69421;51.062;3.728;2023-04-25T11:14:04;5.45;;;1.23;;
80111;SDS011;69421;51.062;3.728;2023-04-25T11:16:29;5.85;;;1.23;;
80111;SDS011;69421;51.062;3.728;2023-04-25T11:18:59;2.75;;;0.52;;
80111;SDS011;69421;51.062;3.728;2023-04-25T11:21:28;2.90;;;0.57;;
80111;SDS011;69421;51.062;3.728;2023-04-25T11:23:56;6.57;;;1.42;;
80111;SDS011;69421;51.062;3.728;2023-04-25T11:26:22;1.90;;;0.73;;
80111;SDS011;69421;51.062;3.728;2023-04-25T11:28:49;5.47;;;1.00;;
80111;SDS011;69421;51.062;3.728;2023-04-25T11:31:15;2.90;;;1.10;;
80111;SDS011;69421;51.062;3.728;2023-04-25T11:33:40;3.30;;;1.23;;
80111;SDS011;69421;51.062;3.728;2023-04-25T11:36:07;3.63;;;0.85;;
80111;SDS011;69421;51.062;3.728;2023-04-25T11:38:34;2.97;;;1.17;;
80111;SDS011;69421;51.062;3.728;2023-04-25T11:41:00;5.05;;;1.40;;
80111;SDS011;69421;51.062;3.728;2023-04-25T11:43:25;5.53;;;0.93;;
80111;SDS011;69421;51.062;3.728;2023-04-25T11:45:51;4.03;;;1.38;;
80111;SDS011;69421;51.062;3.728;2023-04-25T11:48:17;2.20;;;0.75;;
80111;SDS011;69421;51.062;3.728;2023-04-25T11:50:43;3.95;;;1.30;;
80111;SDS011;69421;51.062;3.728;2023-04-25T11:53:09;8.65;;;3.63;;
80111;SDS011;69421;51.062;3.728;2023-04-25T11:55:35;6.88;;;0.90;;
80111;SDS011;69421;51.062;3.728;2023-04-25T11:58:01;5.95;;;1.13;;
80111;SDS011;69421;51.062;3.728;2023-04-25T12:00:28;4.25;;;1.55;;
80111;SDS011;69421;51.062;3.728;2023-04-25T12:02:55;6.18;;;1.70;;
80111;SDS011;69421;51.062;3.728;2023-04-25T12:05:27;6.53;;;0.82;;
80111;SDS011;69421;51.062;3.728;2023-04-25T12:07:54;4.20;;;1.80;;
80111;SDS011;69421;51.062;3.728;2023-04-25T12:10:19;2.15;;;1.70;;
80111;SDS011;69421;51.062;3.728;2023-04-25T12:12:46;2.70;;;0.75;;
80111;SDS011;69421;51.062;3.728;2023-04-25T12:15:24;4.97;;;1.08;;
80111;SDS011;69421;51.062;3.728;2023-04-25T12:17:50;4.95;;;0.98;;
80111;SDS011;69421;51.062;3.728;2023-04-25T12:20:18;4.85;;;1.08;;
80111;SDS011;69421;51.062;3.728;2023-04-25T12:22:46;6.05;;;1.40;;
80111;SDS011;69421;51.062;3.728;2023-04-25T12:25:13;6.00;;;1.33;;
80111;SDS011;69421;51.062;3.728;2023-04-25T12:27:40;4.60;;;0.90;;
80111;SDS011;69421;51.062;3.728;2023-04-25T12:30:07;4.30;;;1.08;;
80111;SDS011;69421;51.062;3.728;2023-04-25T12:32:33;4.15;;;0.80;;
80111;SDS011;69421;51.062;3.728;2023-04-25T12:34:58;8.75;;;0.82;;
80111;SDS011;69421;51.062;3.728;2023-04-25T12:37:24;6.95;;;1.02;;
80111;SDS011;69421;51.062;3.728;2023-04-25T12:39:51;4.57;;;0.70;;
80111;SDS011;69421;51.062;3.728;2023-04-25T12:42:16;2.97;;;0.47;;
80111;SDS011;69421;51.062;3.728;2023-04-25T12:44:42;6.78;;;1.55;;
80111;SDS011;69421;51.062;3.728;2023-04-25T12:47:07;10.53;;;1.70;;
80111;SDS011;69421;51.062;3.728;2023-04-25T12:49:33;5.25;;;0.98;;
80111;SDS011;69421;51.062;3.728;2023-04-25T12:51:58;4.75;;;0.80;;
80111;SDS011;69421;51.062;3.728;2023-04-25T12:54:26;2.83;;;0.47;;
80111;SDS011;69421;51.062;3.728;2023-04-25T12:56:51;6.20;;;0.82;;
80111;SDS011;69421;51.062;3.728;2023-04-25T12:59:18;4.50;;;0.82;;
80111;SDS011;69421;51.062;3.728;2023-04-25T13:01:45;4.47;;;0.80;;
80111;SDS011;69421;51.062;3.728;2023-04-25T13:04:10;2.17;;;0.77;;
80111;SDS011;69421;51.062;3.728;2023-04-25T13:06:36;4.40;;;1.17;;
80111;SDS011;69421;51.062;3.728;2023-04-25T13:09:01;6.68;;;1.85;;
80111;SDS011;69421;51.062;3.728;2023-04-25T13:11:28;3.22;;;1.77;;
80111;SDS011;69421;51.062;3.728;2023-04-25T13:13:53;3.38;;;0.80;;
80111;SDS011;69421;51.062;3.728;2023-04-25T13:16:19;4.80;;;1.02;;
80111;SDS011;69421;51.062;3.728;2023-04-25T13:18:45;2.97;;;1.13;;
80111;SDS011;69421;51.062;3.728;2023-04-25T13:21:11;4.68;;;1.30;;
80111;SDS011;69421;51.062;3.728;2023-04-25T13:23:36;4.22;;;0.90;;
80111;SDS011;69421;51.062;3.728;2023-04-25T13:26:02;5.73;;;1.57;;
80111;SDS011;69421;51.062;3.728;2023-04-25T13:28:27;7.88;;;1.95;;
80111;SDS011;69421;51.062;3.728;2023-04-25T13:30:53;4.38;;;1.33;;
80111;SDS011;69421;51.062;3.728;2023-04-25T13:33:19;5.18;;;0.80;;
80111;SDS011;69421;51.062;3.728;2023-04-25T13:35:45;5.47;;;1.48;;
80111;SDS011;69421;51.062;3.728;2023-04-25T13:38:22;6.97;;;1.15;;
80111;SDS011;69421;51.062;3.728;2023-04-25T13:40:49;7.20;;;1.67;;
80111;SDS011;69421;51.062;3.728;2023-04-25T13:43:17;3.45;;;1.13;;
80111;SDS011;69421;51.062;3.728;2023-04-25T13:45:43;2.92;;;0.77;;
80111;SDS011;69421;51.062;3.728;2023-04-25T13:48:08;4.65;;;1.48;;
80111;SDS011;69421;51.062;3.728;2023-04-25T13:50:34;3.20;;;0.90;;
80111;SDS011;69421;51.062;3.728;2023-04-25T13:53:00;3.80;;;0.90;;
80111;SDS011;69421;51.062;3.728;2023-04-25T13:55:26;2.17;;;1.02;;
80111;SDS011;69421;51.062;3.728;2023-04-25T13:57:51;4.97;;;1.00;;
80111;SDS011;69421;51.062;3.728;2023-04-25T14:00:16;6.60;;;2.03;;
80111;SDS011;69421;51.062;3.728;2023-04-25T14:02:42;4.75;;;2.15;;
80111;SDS011;69421;51.062;3.728;2023-04-25T14:05:08;2.30;;;0.85;;
80111;SDS011;69421;51.062;3.728;2023-04-25T14:07:34;2.30;;;1.02;;
80111;SDS011;69421;51.062;3.728;2023-04-25T14:10:00;2.15;;;0.82;;
80111;SDS011;69421;51.062;3.728;2023-04-25T14:12:29;3.03;;;0.70;;
80111;SDS011;69421;51.062;3.728;2023-04-25T14:14:55;4.90;;;2.15;;
80111;SDS011;69421;51.062;3.728;2023-04-25T14:17:20;1.83;;;0.88;;
80111;SDS011;69421;51.062;3.728;2023-04-25T14:19:46;4.25;;;0.70;;
80111;SDS011;69421;51.062;3.728;2023-04-25T14:22:13;2.25;;;0.90;;
80111;SDS011;69421;51.062;3.728;2023-04-25T14:24:40;4.40;;;0.90;;
80111;SDS011;69421;51.062;3.728;2023-04-25T14:27:08;4.45;;;1.30;;
80111;SDS011;69421;51.062;3.728;2023-04-25T14:29:37;7.70;;;1.52;;
80111;SDS011;69421;51.062;3.728;2023-04-25T14:32:02;4.28;;;1.05;;
80111;SDS011;69421;51.062;3.728;2023-04-25T14:34:30;4.30;;;1.02;;
80111;SDS011;69421;51.062;3.728;2023-04-25T14:36:55;4.35;;;1.00;;
80111;SDS011;69421;51.062;3.728;2023-04-25T14:39:21;6.03;;;2.33;;
80111;SDS011;69421;51.062;3.728;2023-04-25T14:41:46;3.90;;;1.15;;
80111;SDS011;69421;51.062;3.728;2023-04-25T14:44:12;2.90;;;0.85;;
80111;SDS011;69421;51.062;3.728;2023-04-25T14:46:37;5.28;;;0.90;;
80111;SDS011;69421;51.062;3.728;2023-04-25T14:49:03;4.43;;;0.70;;
80111;SDS011;69421;51.062;3.728;2023-04-25T14:51:28;4.70;;;0.65;;
80111;SDS011;69421;51.062;3.728;2023-04-25T14:53:54;3.33;;;0.65;;
80111;SDS011;69421;51.062;3.728;2023-04-25T14:56:20;5.28;;;0.80;;
80111;SDS011;69421;51.062;3.728;2023-04-25T14:58:46;3.10;;;1.05;;
80111;SDS011;69421;51.062;3.728;2023-04-25T15:01:11;4.75;;;1.27;;